createdAt,value
2023-05-21T00:01:35.926Z,0.30
2023-05-21T00:04:41.244Z,0.20
2023-05-21T00:07:43.332Z,0.88
2023-05-21T00:10:44.987Z,0.30
2023-05-21T00:13:46.597Z,0.20
2023-05-21T00:16:48.336Z,0.20
2023-05-21T00:19:50.427Z,0.20
2023-05-21T00:22:52.050Z,0.30
2023-05-21T00:25:53.674Z,0.38
2023-05-21T00:28:55.511Z,0.73
2023-05-21T00:31:57.168Z,0.40
2023-05-21T00:34:58.803Z,0.20
2023-05-21T00:38:01.049Z,0.30
2023-05-21T00:41:03.077Z,0.20
2023-05-21T00:44:04.887Z,0.20
2023-05-21T00:47:07.282Z,0.25
2023-05-21T00:50:09.176Z,0.15
2023-05-21T00:53:11.086Z,0.20
2023-05-21T00:56:12.933Z,0.10
2023-05-21T00:59:16.568Z,0.20
2023-05-21T01:02:18.655Z,0.20
2023-05-21T01:05:22.074Z,0.30
2023-05-21T01:08:23.761Z,0.20
2023-05-21T01:11:51.232Z,0.20
2023-05-21T01:14:53.540Z,0.20
2023-05-21T01:17:55.905Z,0.25
2023-05-21T01:20:57.566Z,0.30
2023-05-21T01:23:59.291Z,0.20
2023-05-21T01:27:02.890Z,0.30
2023-05-21T01:30:05.102Z,0.15
2023-05-21T01:33:29.703Z,0.17
2023-05-21T01:36:38.155Z,0.15
2023-05-21T01:39:47.608Z,0.28
2023-05-21T01:42:49.361Z,0.20
2023-05-21T01:45:54.726Z,0.32
2023-05-21T01:48:57.188Z,0.28
2023-05-21T01:51:59.037Z,0.30
2023-05-21T01:55:00.703Z,0.20
2023-05-21T01:58:02.727Z,0.20
2023-05-21T02:01:05.141Z,0.20
2023-05-21T02:04:06.918Z,0.20
2023-05-21T02:07:10.292Z,0.20
2023-05-21T02:10:12.290Z,0.20
2023-05-21T02:13:13.889Z,0.28
2023-05-21T02:16:16.034Z,0.38
2023-05-21T02:19:18.337Z,0.32
2023-05-21T02:22:19.931Z,0.30
2023-05-21T02:25:21.532Z,0.20
2023-05-21T02:28:23.959Z,0.20
2023-05-21T02:31:25.586Z,0.20
2023-05-21T02:34:27.330Z,0.20
2023-05-21T02:37:29.053Z,0.20
2023-05-21T02:40:30.815Z,0.20
2023-05-21T02:43:32.648Z,0.28
2023-05-21T02:46:34.240Z,0.15
2023-05-21T02:49:36.136Z,0.30
2023-05-21T02:52:37.667Z,0.20
2023-05-21T02:55:42.112Z,0.20
2023-05-21T02:58:43.700Z,0.20
2023-05-21T03:01:45.627Z,0.20
2023-05-21T03:04:47.919Z,0.20
2023-05-21T03:07:49.508Z,0.75
2023-05-21T03:10:51.073Z,0.30
2023-05-21T03:13:52.661Z,0.20
2023-05-21T03:16:55.029Z,0.20
2023-05-21T03:19:56.993Z,0.20
2023-05-21T03:22:58.659Z,0.20
2023-05-21T03:26:01.043Z,0.20
2023-05-21T03:29:02.636Z,0.10
2023-05-21T03:32:04.593Z,0.15
2023-05-21T03:35:06.690Z,0.10
2023-05-21T03:38:08.300Z,0.20
2023-05-21T03:41:11.036Z,0.20
2023-05-21T03:44:12.687Z,0.10
2023-05-21T03:47:14.378Z,0.10
2023-05-21T03:50:16.059Z,0.20
2023-05-21T03:53:18.156Z,0.20
2023-05-21T03:56:19.708Z,0.13
2023-05-21T03:59:21.318Z,0.20
2023-05-21T04:02:23.402Z,0.20
2023-05-21T04:05:25.052Z,0.20
2023-05-21T04:08:26.922Z,0.20
2023-05-21T04:11:28.504Z,0.20
2023-05-21T04:14:30.068Z,0.20
2023-05-21T04:17:31.640Z,0.47
2023-05-21T04:20:33.266Z,0.20
2023-05-21T04:23:36.789Z,0.15
2023-05-21T04:26:42.092Z,0.20
2023-05-21T04:29:43.722Z,0.30
2023-05-21T04:32:46.026Z,0.20
2023-05-21T04:35:50.224Z,0.15
2023-05-21T04:38:51.952Z,0.32
2023-05-21T04:41:54.763Z,0.20
2023-05-21T04:44:59.360Z,0.20
2023-05-21T04:48:01.127Z,0.10
2023-05-21T04:51:05.813Z,1.30
2023-05-21T04:54:08.088Z,0.20
2023-05-21T04:57:09.671Z,0.20
2023-05-21T05:00:11.950Z,0.40
2023-05-21T05:03:13.887Z,0.10
2023-05-21T05:06:16.760Z,0.52
2023-05-21T05:09:19.184Z,0.68
2023-05-21T05:12:20.830Z,0.17
2023-05-21T05:15:22.423Z,0.35
2023-05-21T05:18:24.049Z,0.68
2023-05-21T05:21:25.691Z,0.20
2023-05-21T05:24:27.237Z,0.20
2023-05-21T05:27:28.815Z,0.20
2023-05-21T05:30:30.556Z,0.20
2023-05-21T05:33:32.218Z,0.20
2023-05-21T05:36:33.814Z,0.20
2023-05-21T05:39:35.502Z,0.28
2023-05-21T05:42:37.117Z,0.20
2023-05-21T05:45:39.036Z,0.20
2023-05-21T05:48:40.878Z,0.30
2023-05-21T05:51:42.483Z,0.28
2023-05-21T05:54:44.059Z,0.20
2023-05-21T05:57:45.686Z,0.22
2023-05-21T06:00:47.275Z,0.20
2023-05-21T06:03:48.940Z,0.25
2023-05-21T06:06:50.987Z,0.20
2023-05-21T06:09:52.543Z,0.20
2023-05-21T06:12:54.125Z,0.20
2023-05-21T06:15:55.828Z,0.20
2023-05-21T06:18:57.799Z,0.20
2023-05-21T06:21:59.421Z,0.20
2023-05-21T06:25:01.084Z,0.10
2023-05-21T06:28:02.943Z,0.20
2023-05-21T06:31:04.618Z,0.30
2023-05-21T06:34:06.396Z,0.20
2023-05-21T06:37:08.167Z,0.20
2023-05-21T06:40:10.147Z,0.50
2023-05-21T06:43:11.799Z,0.30
2023-05-21T06:46:13.445Z,0.30
2023-05-21T06:49:15.255Z,0.30
2023-05-21T06:52:16.844Z,0.22
2023-05-21T06:55:18.553Z,0.20
2023-05-21T06:58:20.212Z,0.20
2023-05-21T07:01:25.034Z,0.80
2023-05-21T07:04:26.766Z,0.50
2023-05-21T07:07:28.341Z,0.28
2023-05-21T07:10:29.906Z,0.20
2023-05-21T07:13:31.498Z,0.30
2023-05-21T07:16:33.115Z,0.20
2023-05-21T07:19:34.914Z,0.20
2023-05-21T07:22:38.986Z,0.30
2023-05-21T07:25:40.606Z,0.17
2023-05-21T07:28:42.400Z,0.20
2023-05-21T07:31:43.963Z,0.43
2023-05-21T07:34:45.786Z,0.20
2023-05-21T07:37:48.095Z,0.30
2023-05-21T07:40:50.060Z,0.28
2023-05-21T07:43:51.625Z,0.30
2023-05-21T07:46:53.251Z,0.20
2023-05-21T07:49:54.977Z,0.20
2023-05-21T07:52:56.733Z,0.20
2023-05-21T07:55:59.539Z,0.20
2023-05-21T07:59:01.309Z,0.30
2023-05-21T08:02:02.948Z,1.48
2023-05-21T08:05:04.925Z,0.40
2023-05-21T08:08:06.730Z,0.50
2023-05-21T08:11:08.375Z,1.10
2023-05-21T08:14:10.267Z,0.70
2023-05-21T08:17:12.084Z,1.17
2023-05-21T08:20:15.317Z,1.30
2023-05-21T08:23:16.959Z,0.70
2023-05-21T08:26:18.573Z,0.30
2023-05-21T08:29:20.171Z,0.50
2023-05-21T08:32:23.398Z,0.40
2023-05-21T08:35:25.015Z,0.50
2023-05-21T08:38:28.814Z,0.88
2023-05-21T08:41:35.268Z,0.40
2023-05-21T08:44:42.116Z,0.50
2023-05-21T08:47:44.490Z,0.80
2023-05-21T08:50:46.818Z,0.55
2023-05-21T08:53:49.716Z,0.73
2023-05-21T08:56:53.425Z,0.80
2023-05-21T08:59:55.279Z,1.27
2023-05-21T09:02:57.273Z,0.35
2023-05-21T09:06:00.112Z,0.50
2023-05-21T09:09:09.781Z,0.38
2023-05-21T09:12:11.369Z,0.28
2023-05-21T09:15:13.057Z,0.60
2023-05-21T09:18:15.193Z,0.60
2023-05-21T09:21:24.886Z,1.15
2023-05-21T09:24:32.539Z,0.70
2023-05-21T09:27:36.544Z,0.70
2023-05-21T09:30:43.602Z,0.60
2023-05-21T09:33:48.365Z,0.98
2023-05-21T09:36:50.182Z,1.02
2023-05-21T09:39:52.082Z,1.73
2023-05-21T09:42:55.253Z,0.57
2023-05-21T09:45:59.693Z,0.88
2023-05-21T09:49:02.734Z,0.80
2023-05-21T09:52:04.547Z,0.80
2023-05-21T09:55:06.985Z,1.30
2023-05-21T09:58:10.787Z,0.98
2023-05-21T10:01:12.481Z,1.10
2023-05-21T10:04:14.396Z,0.88
2023-05-21T10:07:27.651Z,0.98
2023-05-21T10:10:31.602Z,0.98
2023-05-21T10:13:39.621Z,0.85
2023-05-21T10:16:42.670Z,1.10
2023-05-21T10:19:46.578Z,1.25
2023-05-21T10:22:50.408Z,0.93
2023-05-21T10:25:54.039Z,1.70
2023-05-21T10:28:57.643Z,1.00
2023-05-21T10:32:01.626Z,1.52
2023-05-21T10:35:03.463Z,1.25
2023-05-21T10:38:07.843Z,1.45
2023-05-21T10:41:10.859Z,1.48
2023-05-21T10:45:05.017Z,1.27
2023-05-21T10:48:19.280Z,1.15
2023-05-21T10:51:25.786Z,1.25
2023-05-21T10:54:52.903Z,0.93
2023-05-21T10:58:19.223Z,1.23
2023-05-21T11:01:21.380Z,1.48
2023-05-21T11:04:26.388Z,2.53
2023-05-21T11:07:54.138Z,2.05
2023-05-21T11:11:00.521Z,1.00
2023-05-21T11:14:02.097Z,0.93
2023-05-21T11:17:06.837Z,1.15
2023-05-21T11:20:11.825Z,1.48
2023-05-21T11:23:15.012Z,2.10
2023-05-21T11:26:27.479Z,1.85
2023-05-21T11:29:44.373Z,0.80
2023-05-21T11:33:07.799Z,1.10
2023-05-21T11:36:13.148Z,1.08
2023-05-21T11:39:22.332Z,1.27
2023-05-21T11:42:35.040Z,1.52
2023-05-21T11:45:36.913Z,1.35
2023-05-21T11:48:39.294Z,1.15
2023-05-21T11:51:40.954Z,1.40
2023-05-21T11:54:46.471Z,1.70
2023-05-21T11:57:48.785Z,1.50
2023-05-21T12:00:51.374Z,2.88
2023-05-21T12:03:53.012Z,1.80
2023-05-21T12:06:55.470Z,2.65
2023-05-21T12:09:57.835Z,1.70
2023-05-21T12:12:59.498Z,1.42
2023-05-21T12:16:04.513Z,2.17
2023-05-21T12:19:07.673Z,1.48
2023-05-21T12:22:10.148Z,1.60
2023-05-21T12:25:12.406Z,1.40
2023-05-21T12:28:14.095Z,1.92
2023-05-21T12:31:16.332Z,2.05
2023-05-21T12:34:41.313Z,1.38
2023-05-21T12:37:43.443Z,3.55
2023-05-21T12:40:45.751Z,1.75
2023-05-21T12:43:47.722Z,2.00
2023-05-21T12:46:49.482Z,2.10
2023-05-21T12:49:53.112Z,2.20
2023-05-21T12:52:58.423Z,1.95
2023-05-21T12:56:09.177Z,1.70
2023-05-21T12:59:17.115Z,2.13
2023-05-21T13:02:30.064Z,2.25
2023-05-21T13:05:31.815Z,2.45
2023-05-21T13:08:36.082Z,2.45
2023-05-21T13:11:37.699Z,2.10
2023-05-21T13:14:39.424Z,1.63
2023-05-21T13:17:41.133Z,1.83
2023-05-21T13:20:42.955Z,3.08
2023-05-21T13:23:44.550Z,2.00
2023-05-21T13:26:46.107Z,1.60
2023-05-21T13:29:47.720Z,2.13
2023-05-21T13:32:49.453Z,1.90
2023-05-21T13:35:51.909Z,1.80
2023-05-21T13:38:53.517Z,1.95
2023-05-21T13:41:55.187Z,1.80
2023-05-21T13:44:56.819Z,2.30
2023-05-21T13:47:58.494Z,2.00
2023-05-21T13:51:00.147Z,1.92
2023-05-21T13:54:01.845Z,2.28
2023-05-21T13:57:04.201Z,2.20
2023-05-21T14:00:09.107Z,2.20
2023-05-21T14:03:11.379Z,1.73
2023-05-21T14:06:12.968Z,1.67
2023-05-21T14:09:15.395Z,1.70
2023-05-21T14:12:17.285Z,2.08
2023-05-21T14:15:19.073Z,1.90
2023-05-21T14:18:20.714Z,1.92
2023-05-21T14:21:22.362Z,2.22
2023-05-21T14:24:23.932Z,2.65
2023-05-21T14:27:25.592Z,1.80
2023-05-21T14:30:27.291Z,2.20
2023-05-21T14:33:31.130Z,1.90
2023-05-21T14:36:33.031Z,1.60
2023-05-21T14:39:34.626Z,1.90
2023-05-21T14:42:36.757Z,2.42
2023-05-21T14:45:38.479Z,1.90
2023-05-21T14:48:40.226Z,1.50
2023-05-21T14:51:43.679Z,1.75
2023-05-21T14:54:45.518Z,2.00
2023-05-21T14:57:47.354Z,2.05
2023-05-21T15:00:48.978Z,1.90
2023-05-21T15:03:50.776Z,1.70
2023-05-21T15:06:52.512Z,1.90
2023-05-21T15:09:54.087Z,1.85
2023-05-21T15:12:55.845Z,1.98
2023-05-21T15:15:57.510Z,1.60
2023-05-21T15:18:59.197Z,2.05
2023-05-21T15:22:00.845Z,1.52
2023-05-21T15:25:03.879Z,1.45
2023-05-21T15:28:05.499Z,1.90
2023-05-21T15:31:07.154Z,2.00
2023-05-21T15:34:08.836Z,2.67
2023-05-21T15:37:10.722Z,1.85
2023-05-21T15:40:12.761Z,2.72
2023-05-21T15:43:14.381Z,1.80
2023-05-21T15:46:16.066Z,2.08
2023-05-21T15:49:17.835Z,1.83
2023-05-21T15:52:20.115Z,1.83
2023-05-21T15:55:21.972Z,1.58
2023-05-21T15:58:23.603Z,2.00
2023-05-21T16:01:26.935Z,1.60
2023-05-21T16:04:28.653Z,1.50
2023-05-21T16:07:30.332Z,1.77
2023-05-21T16:10:31.942Z,1.48
2023-05-21T16:13:33.528Z,1.58
2023-05-21T16:16:35.221Z,0.95
2023-05-21T16:19:36.947Z,0.98
2023-05-21T16:22:38.793Z,0.98
2023-05-21T16:25:40.786Z,0.82
2023-05-21T16:28:42.388Z,1.10
2023-05-21T16:31:43.994Z,1.17
2023-05-21T16:34:45.743Z,1.10
2023-05-21T16:37:47.572Z,0.77
2023-05-21T16:40:49.384Z,1.10
2023-05-21T16:43:54.271Z,0.80
2023-05-21T16:46:56.012Z,0.70
2023-05-21T16:49:58.798Z,0.80
2023-05-21T16:53:02.526Z,0.80
2023-05-21T16:56:04.253Z,1.40
2023-05-21T16:59:05.972Z,1.08
2023-05-21T17:02:10.745Z,0.80
2023-05-21T17:05:12.303Z,0.80
2023-05-21T17:08:13.916Z,0.50
2023-05-21T17:11:17.283Z,0.60
2023-05-21T17:14:32.663Z,0.80
2023-05-21T17:17:35.202Z,0.55
2023-05-21T17:20:36.803Z,0.88
2023-05-21T17:23:38.474Z,0.80
2023-05-21T17:26:40.063Z,0.70
2023-05-21T17:29:42.446Z,0.63
2023-05-21T17:32:44.036Z,0.85
2023-05-21T17:35:45.769Z,1.20
2023-05-21T17:38:47.414Z,1.00
2023-05-21T17:41:49.567Z,0.93
2023-05-21T17:44:51.307Z,1.10
2023-05-21T17:47:52.983Z,1.08
2023-05-21T17:50:54.696Z,1.10
2023-05-21T17:53:56.340Z,1.15
2023-05-21T17:56:57.970Z,1.05
2023-05-21T17:59:59.587Z,0.90
2023-05-21T18:03:01.409Z,1.08
2023-05-21T18:06:03.240Z,0.77
2023-05-21T18:09:07.337Z,0.88
2023-05-21T18:12:09.057Z,0.57
2023-05-21T18:15:10.889Z,0.98
2023-05-21T18:18:19.832Z,0.60
2023-05-21T18:21:23.431Z,0.63
2023-05-21T18:24:25.893Z,0.50
2023-05-21T18:27:27.528Z,0.30
2023-05-21T18:30:29.140Z,0.38
2023-05-21T18:33:31.368Z,0.45
2023-05-21T18:36:38.611Z,0.30
2023-05-21T18:39:40.204Z,0.30
2023-05-21T18:42:41.786Z,0.40
2023-05-21T18:45:44.537Z,0.40
2023-05-21T18:48:46.404Z,0.38
2023-05-21T18:51:47.993Z,0.40
2023-05-21T18:54:49.538Z,0.50
2023-05-21T18:57:51.271Z,0.52
2023-05-21T19:00:53.049Z,0.52
2023-05-21T19:03:54.718Z,0.50
2023-05-21T19:06:56.416Z,0.80
2023-05-21T19:10:00.190Z,0.70
2023-05-21T19:13:03.014Z,0.60
2023-05-21T19:16:10.933Z,0.50
2023-05-21T19:19:12.780Z,0.57
2023-05-21T19:22:15.103Z,0.43
2023-05-21T19:25:16.833Z,0.60
2023-05-21T19:28:19.014Z,0.50
2023-05-21T19:31:21.136Z,0.60
2023-05-21T19:34:23.397Z,0.30
2023-05-21T19:37:25.071Z,0.50
2023-05-21T19:40:26.646Z,0.40
2023-05-21T19:43:28.591Z,0.40
2023-05-21T19:46:31.317Z,0.40
2023-05-21T19:49:32.929Z,0.40
2023-05-21T19:52:34.499Z,0.70
2023-05-21T19:55:37.605Z,0.88
2023-05-21T19:58:39.323Z,0.40
2023-05-21T20:01:43.293Z,0.40
2023-05-21T20:04:44.946Z,0.50
2023-05-21T20:07:46.708Z,0.30
2023-05-21T20:10:51.306Z,0.30
2023-05-21T20:13:53.575Z,0.30
2023-05-21T20:16:58.504Z,0.30
2023-05-21T20:20:01.435Z,0.30
2023-05-21T20:23:03.624Z,0.52
2023-05-21T20:26:05.270Z,0.32
2023-05-21T20:29:08.113Z,0.40
2023-05-21T20:32:09.762Z,0.60
2023-05-21T20:35:11.488Z,0.40
2023-05-21T20:38:13.306Z,0.30
2023-05-21T20:41:15.195Z,0.30
2023-05-21T20:44:17.564Z,0.30
2023-05-21T20:47:20.331Z,0.40
2023-05-21T20:50:25.930Z,0.30
2023-05-21T20:53:27.909Z,0.40
2023-05-21T20:56:41.683Z,0.43
2023-05-21T20:59:44.361Z,0.38
2023-05-21T21:02:46.103Z,0.40
2023-05-21T21:05:47.913Z,0.43
2023-05-21T21:08:50.156Z,0.50
2023-05-21T21:11:51.739Z,0.50
2023-05-21T21:14:53.973Z,0.52
2023-05-21T21:17:55.662Z,0.40
2023-05-21T21:20:57.395Z,0.40
2023-05-21T21:23:59.072Z,0.47
2023-05-21T21:27:01.411Z,0.70
2023-05-21T21:30:04.683Z,0.68
2023-05-21T21:33:07.764Z,0.50
2023-05-21T21:36:12.546Z,0.60
2023-05-21T21:39:14.201Z,0.50
2023-05-21T21:42:15.867Z,0.55
2023-05-21T21:45:17.508Z,0.63
2023-05-21T21:48:19.060Z,0.85
2023-05-21T21:51:23.173Z,0.70
2023-05-21T21:54:25.182Z,0.70
2023-05-21T21:57:29.434Z,0.60
2023-05-21T22:00:31.043Z,1.00
2023-05-21T22:03:36.004Z,0.70
2023-05-21T22:06:39.119Z,0.63
2023-05-21T22:09:40.703Z,0.60
2023-05-21T22:12:43.289Z,0.68
2023-05-21T22:15:44.896Z,0.70
2023-05-21T22:18:46.891Z,0.70
2023-05-21T22:21:48.543Z,0.85
2023-05-21T22:24:50.153Z,0.80
2023-05-21T22:27:52.452Z,0.70
2023-05-21T22:30:54.173Z,0.60
2023-05-21T22:33:55.841Z,0.60
2023-05-21T22:36:57.503Z,0.60
2023-05-21T22:39:59.081Z,1.10
2023-05-21T22:43:02.826Z,1.38
2023-05-21T22:46:04.582Z,0.93
2023-05-21T22:49:06.346Z,0.80
2023-05-21T22:52:09.206Z,1.00
2023-05-21T22:55:11.631Z,0.68
2023-05-21T22:58:13.310Z,0.82
2023-05-21T23:01:15.141Z,0.63
2023-05-21T23:04:16.753Z,1.52
2023-05-21T23:07:18.298Z,1.05
2023-05-21T23:10:19.990Z,0.90
2023-05-21T23:13:21.705Z,0.60
2023-05-21T23:16:24.036Z,0.60
2023-05-21T23:19:25.751Z,0.70
2023-05-21T23:22:27.444Z,0.55
2023-05-21T23:25:29.023Z,1.35
2023-05-21T23:28:30.786Z,0.50
2023-05-21T23:31:32.926Z,0.50
2023-05-21T23:34:34.559Z,0.50
2023-05-21T23:37:36.110Z,0.50
2023-05-21T23:40:37.854Z,0.50
2023-05-21T23:43:39.634Z,0.50
2023-05-21T23:46:43.096Z,0.40
2023-05-21T23:49:44.676Z,0.47
2023-05-21T23:52:46.557Z,0.38
2023-05-21T23:55:48.208Z,0.57
2023-05-21T23:58:50.757Z,0.50
